Fogomaiu Airstrip


Codes: AYFO/
Name: Fogomaiu Airstrip
City: Fogomaiu
Country: Papua New Guinea
Elevation: 737 ft.

Photos at Fogomaiu Airstrip


   Photos courtesy of SpottingLog. You can add your own sightings and photos by signing up for a free trial today.



No photos found.

Weather at Fogomaiu Airstrip


Time (UTC)DescriptionTempratureWindCloud coverageVisibilityPressureHumidity
15-Apr-2024 18:00Light Rain23°C2 mph, NW100%9439m1011hPa100%
15-Apr-2024 21:00Overcast Clouds23°C2 mph, NW100%10000m1011hPa99%
16-Apr-2024 00:00Overcast Clouds28°C2 mph, NW97%10000m1012hPa78%
16-Apr-2024 03:00Light Rain31°C4 mph, S70%7731m1008hPa74%
16-Apr-2024 06:00Moderate Rain29°C2 mph, SE69%4755m1007hPa93%
16-Apr-2024 09:00Moderate Rain24°C0 mph, W100%4495m1009hPa98%
16-Apr-2024 12:00Moderate Rain24°C2 mph, NW100%5627m1011hPa99%
16-Apr-2024 15:00Moderate Rain24°C2 mph, NW100%10000m1010hPa99%
16-Apr-2024 18:00Light Rain23°C0 mph, NW100%10000m1009hPa99%
16-Apr-2024 21:00Light Rain23°C0 mph, NW100%5305m1011hPa100%
17-Apr-2024 00:00Light Rain24°C2 mph, NW100%10000m1011hPa98%
17-Apr-2024 03:00Light Rain32°C2 mph, NW93%10000m1007hPa57%
17-Apr-2024 06:00Light Rain30°C2 mph, SW67%10000m1005hPa73%
17-Apr-2024 09:00Moderate Rain24°C2 mph, NW84%3541m1008hPa98%
17-Apr-2024 12:00Moderate Rain24°C2 mph, NW92%7044m1010hPa99%
17-Apr-2024 15:00Moderate Rain24°C2 mph, NW100%2723m1009hPa100%
17-Apr-2024 18:00Light Rain23°C0 mph, W100%7787m1008hPa100%
17-Apr-2024 21:00Light Rain23°C2 mph, NW100%10000m1009hPa99%
18-Apr-2024 00:00Overcast Clouds26°C2 mph, NW100%10000m1010hPa89%
18-Apr-2024 03:00Light Rain30°C4 mph, W100%10000m1007hPa60%
18-Apr-2024 06:00Light Rain26°C2 mph, N100%10000m1006hPa91%
18-Apr-2024 09:00Light Rain24°C2 mph, W100%10000m1008hPa97%
18-Apr-2024 12:00Light Rain23°C2 mph, NW100%10000m1010hPa97%
18-Apr-2024 15:00Overcast Clouds22°C2 mph, NW100%10000m1009hPa97%
18-Apr-2024 18:00Overcast Clouds22°C2 mph, NW100%10000m1008hPa96%
18-Apr-2024 21:00Broken Clouds22°C2 mph, NW81%10000m1010hPa95%
19-Apr-2024 00:00Broken Clouds30°C2 mph, NW68%10000m1010hPa63%
19-Apr-2024 03:00Light Rain33°C2 mph, SW91%10000m1006hPa52%
19-Apr-2024 06:00Moderate Rain27°C2 mph, N90%5398m1006hPa95%
19-Apr-2024 09:00Heavy Intensity Rain24°C2 mph, NW100%6761m1009hPa100%
19-Apr-2024 12:00Moderate Rain24°C2 mph, NW100%3259m1012hPa100%
19-Apr-2024 15:00Light Rain23°C2 mph, NW100%10000m1010hPa99%
19-Apr-2024 18:00Light Rain22°C0 mph, NW100%10000m1010hPa99%
19-Apr-2024 21:00Overcast Clouds23°C0 mph, NW100%10000m1012hPa99%
20-Apr-2024 00:00Overcast Clouds28°C0 mph, S100%10000m1012hPa74%
20-Apr-2024 03:00Light Rain30°C2 mph, S74%6568m1009hPa79%
20-Apr-2024 06:00Moderate Rain28°C0 mph, E70%10000m1008hPa94%
20-Apr-2024 09:00Moderate Rain25°C0 mph, NE98%10000m1010hPa98%
20-Apr-2024 12:00Light Rain24°C0 mph, NE99%10000m1012hPa99%
20-Apr-2024 15:00Light Rain23°C2 mph, NW100%10000m1011hPa99%